createdAt,value
2022-08-11T00:01:13.091Z,3.58
2022-08-11T00:03:47.695Z,3.60
2022-08-11T00:06:23.805Z,3.50
2022-08-11T00:08:51.941Z,3.38
2022-08-11T00:11:20.162Z,3.83
2022-08-11T00:13:49.032Z,3.40
2022-08-11T00:16:22.089Z,3.90
2022-08-11T00:18:52.133Z,4.10
2022-08-11T00:21:32.547Z,4.60
2022-08-11T00:24:12.177Z,4.35
2022-08-11T00:26:39.403Z,4.18
2022-08-11T00:29:10.798Z,3.80
2022-08-11T00:31:38.587Z,4.15
2022-08-11T00:34:11.262Z,4.03
2022-08-11T00:37:01.412Z,4.45
2022-08-11T00:39:32.188Z,4.03
2022-08-11T00:42:19.673Z,4.55
2022-08-11T00:45:03.974Z,4.13
2022-08-11T00:47:49.305Z,4.22
2022-08-11T00:50:26.346Z,4.57
2022-08-11T00:52:53.524Z,4.63
2022-08-11T00:55:42.365Z,4.75
2022-08-11T00:58:39.039Z,3.67
2022-08-11T01:01:15.786Z,4.13
2022-08-11T01:04:10.985Z,4.43
2022-08-11T01:06:50.168Z,4.07
2022-08-11T01:09:51.448Z,4.27
2022-08-11T01:12:43.242Z,4.55
2022-08-11T01:15:25.827Z,4.25
2022-08-11T01:18:46.912Z,4.07
2022-08-11T01:21:51.576Z,4.20
2022-08-11T01:24:52.758Z,4.43
2022-08-11T01:27:28.859Z,4.30
2022-08-11T01:30:03.911Z,4.22
2022-08-11T01:32:56.844Z,4.45
2022-08-11T01:35:37.250Z,3.83
2022-08-11T01:38:29.115Z,4.13
2022-08-11T01:41:08.575Z,4.25
2022-08-11T01:43:54.286Z,4.18
2022-08-11T01:46:25.693Z,4.28
2022-08-11T01:50:06.425Z,4.18
2022-08-11T01:52:07.927Z,4.40
2022-08-11T01:54:49.026Z,4.40
2022-08-11T01:57:38.594Z,4.10
2022-08-11T02:00:19.945Z,4.60
2022-08-11T02:02:53.985Z,4.40
2022-08-11T02:06:01.216Z,4.47
2022-08-11T02:08:50.385Z,3.80
2022-08-11T02:11:35.471Z,4.18
2022-08-11T02:14:24.962Z,4.47
2022-08-11T02:17:30.442Z,4.00
2022-08-11T02:20:22.883Z,3.72
2022-08-11T02:23:59.625Z,4.10
2022-08-11T02:26:22.515Z,4.85
2022-08-11T02:28:57.721Z,4.38
2022-08-11T02:32:24.539Z,4.28
2022-08-11T02:35:04.014Z,4.55
2022-08-11T02:37:34.061Z,4.60
2022-08-11T02:42:36.186Z,4.45
2022-08-11T02:45:32.988Z,4.00
2022-08-11T02:48:34.742Z,4.15
2022-08-11T02:51:21.989Z,4.15
2022-08-11T02:54:05.599Z,3.53
2022-08-11T02:57:11.375Z,3.20
2022-08-11T03:00:07.517Z,3.15
2022-08-11T03:03:07.552Z,3.13
2022-08-11T03:05:56.174Z,3.10
2022-08-11T03:08:41.078Z,3.65
2022-08-11T03:11:34.115Z,3.88
2022-08-11T03:14:35.345Z,3.38
2022-08-11T03:17:24.435Z,3.50
2022-08-11T03:20:06.324Z,3.35
2022-08-11T03:22:41.038Z,3.55
2022-08-11T03:25:31.539Z,3.17
2022-08-11T03:28:20.195Z,3.00
2022-08-11T03:31:13.758Z,3.47
2022-08-11T03:34:12.734Z,3.00
2022-08-11T03:37:14.912Z,2.78
2022-08-11T03:39:59.856Z,2.90
2022-08-11T03:42:30.199Z,3.00
2022-08-11T03:45:09.389Z,2.95
2022-08-11T03:47:52.357Z,2.90
2022-08-11T03:50:48.949Z,2.85
2022-08-11T03:53:35.734Z,3.08
2022-08-11T03:56:27.368Z,3.10
2022-08-11T03:59:25.308Z,2.70
2022-08-11T04:02:23.703Z,3.00
2022-08-11T04:05:25.255Z,2.63
2022-08-11T04:08:14.290Z,2.85
2022-08-11T04:10:47.419Z,2.85
2022-08-11T04:13:45.244Z,3.10
2022-08-11T04:17:00.005Z,2.97
2022-08-11T04:19:52.805Z,2.78
2022-08-11T04:22:38.062Z,2.53
2022-08-11T04:25:26.993Z,3.08
2022-08-11T04:28:28.931Z,2.92
2022-08-11T04:31:52.085Z,3.35
2022-08-11T04:34:32.388Z,2.90
2022-08-11T04:37:34.775Z,2.97
2022-08-11T04:40:39.501Z,3.00
2022-08-11T04:43:27.445Z,2.88
2022-08-11T04:46:13.732Z,3.17
2022-08-11T04:49:33.118Z,3.22
2022-08-11T04:52:47.708Z,3.22
2022-08-11T04:55:49.057Z,3.60
2022-08-11T04:58:55.153Z,3.33
2022-08-11T05:01:44.005Z,3.25
2022-08-11T05:04:33.158Z,3.08
2022-08-11T05:07:41.130Z,4.05
2022-08-11T05:10:42.979Z,2.85
2022-08-11T05:13:30.682Z,3.10
2022-08-11T05:16:20.716Z,3.20
2022-08-11T05:19:08.777Z,2.92
2022-08-11T05:21:57.321Z,3.10
2022-08-11T05:24:47.954Z,3.08
2022-08-11T05:27:35.858Z,3.17
2022-08-11T05:30:24.772Z,3.20
2022-08-11T05:33:29.607Z,3.13
2022-08-11T05:36:12.473Z,3.22
2022-08-11T05:38:58.848Z,3.10
2022-08-11T05:41:46.000Z,3.20
2022-08-11T05:44:37.708Z,3.20
2022-08-11T05:47:24.110Z,3.28
2022-08-11T05:50:13.296Z,3.78
2022-08-11T05:53:04.292Z,3.35
2022-08-11T05:56:01.677Z,3.15
2022-08-11T05:58:42.586Z,3.60
2022-08-11T06:01:14.797Z,3.03
2022-08-11T06:04:03.809Z,3.30
2022-08-11T06:06:31.375Z,3.58
2022-08-11T06:08:59.560Z,3.83
2022-08-11T06:11:43.059Z,3.55
2022-08-11T06:14:15.570Z,3.45
2022-08-11T06:16:43.669Z,3.67
2022-08-11T06:19:11.527Z,3.50
2022-08-11T06:21:45.728Z,4.15
2022-08-11T06:24:14.167Z,3.25
2022-08-11T06:27:10.815Z,3.10
2022-08-11T06:29:47.997Z,4.20
2022-08-11T06:32:16.108Z,4.40
2022-08-11T06:34:59.738Z,4.07
2022-08-11T06:37:41.932Z,3.28
2022-08-11T06:40:09.584Z,3.63
2022-08-11T06:42:58.662Z,3.67
2022-08-11T06:45:49.542Z,3.78
2022-08-11T06:48:20.098Z,3.72
2022-08-11T06:51:12.454Z,3.00
2022-08-11T06:54:03.872Z,3.25
2022-08-11T06:57:12.500Z,3.20
2022-08-11T07:00:01.570Z,3.80
2022-08-11T07:02:35.435Z,3.58
2022-08-11T07:05:08.624Z,3.38
2022-08-11T07:08:34.197Z,3.75
2022-08-11T07:11:30.585Z,3.08
2022-08-11T07:14:18.978Z,3.38
2022-08-11T07:16:48.742Z,3.38
2022-08-11T07:19:39.809Z,2.90
2022-08-11T07:22:26.111Z,2.70
2022-08-11T07:25:31.210Z,3.00
2022-08-11T07:28:20.474Z,2.88
2022-08-11T07:30:51.776Z,2.80
2022-08-11T07:34:07.859Z,3.65
2022-08-11T07:36:28.666Z,3.75
2022-08-11T07:38:59.892Z,4.07
2022-08-11T07:41:28.799Z,5.25
2022-08-11T07:44:09.107Z,5.28
2022-08-11T07:46:58.808Z,6.82
2022-08-11T07:49:48.373Z,6.43
2022-08-11T07:52:36.842Z,4.95
2022-08-11T07:55:10.446Z,4.03
2022-08-11T07:58:16.273Z,3.03
2022-08-11T08:01:22.284Z,3.17
2022-08-11T08:04:09.925Z,3.53
2022-08-11T08:06:56.995Z,3.60
2022-08-11T08:09:52.507Z,3.42
2022-08-11T08:12:43.878Z,4.35
2022-08-11T08:15:34.167Z,5.13
2022-08-11T08:18:09.138Z,5.63
2022-08-11T08:20:59.200Z,6.50
2022-08-11T08:23:34.357Z,5.80
2022-08-11T08:26:28.024Z,8.02
2022-08-11T08:29:16.307Z,3.40
2022-08-11T08:31:48.139Z,2.63
2022-08-11T08:34:16.824Z,2.30
2022-08-11T08:36:49.053Z,4.00
2022-08-11T08:39:21.805Z,3.00
2022-08-11T08:41:54.856Z,7.90
2022-08-11T08:44:41.237Z,6.70
2022-08-11T08:47:14.519Z,2.83
2022-08-11T08:49:49.258Z,2.42
2022-08-11T08:52:30.568Z,2.42
2022-08-11T08:55:04.903Z,6.03
2022-08-11T08:57:39.307Z,4.10
2022-08-11T09:00:08.779Z,6.95
2022-08-11T09:02:40.108Z,8.55
2022-08-11T09:05:10.054Z,10.82
2022-08-11T09:07:40.287Z,18.40
2022-08-11T09:10:10.231Z,5.38
2022-08-11T09:12:40.005Z,3.78
2022-08-11T09:15:10.314Z,4.65
2022-08-11T09:17:45.638Z,4.22
2022-08-11T09:20:22.136Z,6.97
2022-08-11T09:26:18.527Z,3.42
2022-08-11T09:28:47.217Z,5.40
2022-08-11T09:31:15.204Z,14.68
2022-08-11T09:33:43.937Z,7.32
2022-08-11T09:36:32.341Z,6.97
2022-08-11T09:39:19.873Z,6.78
2022-08-11T09:41:55.585Z,5.18
2022-08-11T09:44:49.552Z,5.25
2022-08-11T09:47:29.888Z,5.88
2022-08-11T09:50:01.350Z,10.77
2022-08-11T09:52:31.195Z,4.47
2022-08-11T09:54:58.842Z,4.03
2022-08-11T09:57:44.867Z,5.45
2022-08-11T10:00:14.388Z,4.50
2022-08-11T10:02:46.573Z,2.35
2022-08-11T10:05:37.012Z,1.70
2022-08-11T10:08:05.733Z,2.10
2022-08-11T10:10:36.599Z,2.33
2022-08-11T10:13:44.033Z,2.10
2022-08-11T10:15:59.731Z,2.30
2022-08-11T10:18:42.342Z,1.88
2022-08-11T10:21:14.767Z,2.05
2022-08-11T10:24:05.947Z,2.70
2022-08-11T10:26:53.622Z,2.92
2022-08-11T10:29:48.811Z,2.28
2022-08-11T10:32:57.694Z,2.33
2022-08-11T10:35:33.014Z,2.25
2022-08-11T10:38:07.728Z,2.05
2022-08-11T10:40:41.066Z,9.60
2022-08-11T10:43:13.983Z,2.30
2022-08-11T10:46:03.517Z,2.40
2022-08-11T10:48:35.173Z,1.90
2022-08-11T10:51:14.854Z,1.77
2022-08-11T10:54:03.280Z,1.95
2022-08-11T10:56:52.396Z,1.98
2022-08-11T10:59:20.578Z,2.40
2022-08-11T11:01:47.973Z,2.15
2022-08-11T11:04:18.559Z,2.30
2022-08-11T11:07:06.154Z,2.00
2022-08-11T11:09:37.972Z,1.65
2022-08-11T11:12:43.105Z,2.28
2022-08-11T11:15:30.043Z,2.35
2022-08-11T11:18:07.006Z,1.92
2022-08-11T11:20:47.956Z,1.88
2022-08-11T11:23:24.123Z,2.22
2022-08-11T11:26:15.511Z,1.85
2022-08-11T11:29:04.612Z,2.67
2022-08-11T11:31:58.514Z,2.10
2022-08-11T11:34:59.400Z,1.75
2022-08-11T11:37:26.913Z,2.85
2022-08-11T11:39:56.734Z,2.67
2022-08-11T11:44:55.362Z,2.35
2022-08-11T11:47:23.828Z,2.22
2022-08-11T11:49:51.484Z,2.10
2022-08-11T11:52:20.641Z,2.25
2022-08-11T11:54:50.857Z,2.00
2022-08-11T11:57:40.477Z,2.25
2022-08-11T12:03:08.397Z,2.38
2022-08-11T12:05:36.432Z,1.83
2022-08-11T12:08:13.067Z,1.90
2022-08-11T12:10:47.383Z,2.20
2022-08-11T12:13:36.629Z,2.63
2022-08-11T12:16:31.428Z,2.38
2022-08-11T12:18:54.063Z,2.40
2022-08-11T12:24:08.534Z,2.00
2022-08-11T12:27:16.681Z,2.00
2022-08-11T12:29:36.239Z,2.13
2022-08-11T12:32:07.833Z,1.95
2022-08-11T12:34:35.547Z,1.83
2022-08-11T12:37:05.709Z,2.08
2022-08-11T12:40:15.743Z,2.10
2022-08-11T12:43:08.261Z,1.95
2022-08-11T12:45:54.580Z,2.22
2022-08-11T12:48:59.795Z,2.22
2022-08-11T12:52:13.865Z,2.35
2022-08-11T12:54:44.839Z,2.10
2022-08-11T12:57:50.029Z,2.03
2022-08-11T13:00:37.367Z,2.13
2022-08-11T13:03:26.330Z,2.38
2022-08-11T13:05:56.683Z,2.17
2022-08-11T13:08:25.143Z,2.28
2022-08-11T13:11:13.231Z,2.28
2022-08-11T13:13:54.168Z,2.22
2022-08-11T13:16:54.113Z,2.08
2022-08-11T13:19:22.131Z,1.90
2022-08-11T13:21:50.253Z,1.90
2022-08-11T13:24:18.524Z,1.77
2022-08-11T13:26:49.727Z,2.30
2022-08-11T13:29:19.676Z,1.90
2022-08-11T13:31:47.611Z,2.00
2022-08-11T13:34:16.725Z,1.80
2022-08-11T13:36:44.783Z,1.83
2022-08-11T13:39:12.846Z,2.03
2022-08-11T13:41:42.344Z,2.15
2022-08-11T13:44:17.437Z,2.10
2022-08-11T13:46:47.005Z,1.90
2022-08-11T13:49:17.083Z,2.13
2022-08-11T13:51:44.579Z,2.97
2022-08-11T13:54:21.246Z,2.50
2022-08-11T13:56:52.342Z,2.30
2022-08-11T13:59:24.148Z,2.30
2022-08-11T14:02:21.462Z,2.00
2022-08-11T14:04:57.345Z,1.80
2022-08-11T14:07:27.802Z,2.60
2022-08-11T14:09:59.438Z,2.20
2022-08-11T14:12:49.046Z,2.28
2022-08-11T14:15:20.905Z,2.72
2022-08-11T14:17:55.102Z,2.08
2022-08-11T14:20:39.631Z,1.90
2022-08-11T14:23:10.963Z,2.33
2022-08-11T14:26:02.296Z,2.15
2022-08-11T14:28:36.546Z,2.30
2022-08-11T14:31:08.456Z,2.35
2022-08-11T14:34:00.851Z,2.38
2022-08-11T14:36:26.637Z,1.90
2022-08-11T14:38:54.617Z,2.38
2022-08-11T14:42:10.830Z,2.03
2022-08-11T14:44:49.087Z,2.20
2022-08-11T14:47:24.549Z,2.28
2022-08-11T14:50:09.639Z,2.42
2022-08-11T14:52:57.213Z,2.53
2022-08-11T14:55:46.207Z,2.15
2022-08-11T14:58:17.285Z,2.30
2022-08-11T15:00:45.197Z,2.55
2022-08-11T15:03:14.338Z,2.15
2022-08-11T15:05:55.723Z,2.20
2022-08-11T15:08:54.714Z,2.75
2022-08-11T15:11:43.177Z,2.42
2022-08-11T15:14:11.472Z,2.00
2022-08-11T15:17:00.925Z,2.03
2022-08-11T15:19:40.282Z,2.10
2022-08-11T15:22:29.150Z,2.30
2022-08-11T15:24:58.993Z,2.05
2022-08-11T15:27:48.427Z,2.05
2022-08-11T15:30:34.802Z,2.10
2022-08-11T15:33:24.209Z,2.50
2022-08-11T15:36:11.678Z,2.00
2022-08-11T15:38:55.006Z,2.35
2022-08-11T15:41:54.528Z,2.30
2022-08-11T15:45:03.239Z,2.25
2022-08-11T15:47:38.322Z,2.28
2022-08-11T15:50:11.154Z,3.05
2022-08-11T15:52:46.985Z,2.30
2022-08-11T15:55:20.207Z,2.70
2022-08-11T15:58:08.271Z,2.15
2022-08-11T16:00:58.904Z,2.72
2022-08-11T16:04:08.024Z,2.92
2022-08-11T16:06:49.493Z,2.80
2022-08-11T16:09:46.030Z,2.28
2022-08-11T16:12:23.139Z,2.17
2022-08-11T16:15:13.003Z,2.53
2022-08-11T16:17:50.123Z,2.35
2022-08-11T16:20:20.871Z,4.20
2022-08-11T16:23:00.419Z,2.40
2022-08-11T16:27:06.986Z,2.22
2022-08-11T16:28:22.565Z,2.40
2022-08-11T16:30:51.069Z,2.40
2022-08-11T16:33:48.792Z,2.50
2022-08-11T16:36:26.929Z,2.38
2022-08-11T16:38:55.501Z,2.30
2022-08-11T16:41:44.734Z,2.20
2022-08-11T16:44:37.000Z,2.25
2022-08-11T16:47:10.958Z,2.10
2022-08-11T16:49:52.229Z,2.10
2022-08-11T16:52:21.935Z,2.70
2022-08-11T16:54:49.430Z,2.37
2022-08-11T16:57:39.411Z,2.28
2022-08-11T17:00:12.403Z,2.47
2022-08-11T17:03:11.493Z,2.55
2022-08-11T17:06:19.968Z,2.20
2022-08-11T17:09:07.853Z,2.33
2022-08-11T17:11:59.691Z,2.40
2022-08-11T17:14:36.199Z,3.10
2022-08-11T17:17:12.987Z,3.35
2022-08-11T17:20:40.090Z,2.47
2022-08-11T17:22:53.089Z,2.85
2022-08-11T17:25:20.974Z,2.85
2022-08-11T17:27:48.892Z,2.53
2022-08-11T17:30:16.315Z,2.30
2022-08-11T17:33:06.796Z,2.58
2022-08-11T17:35:38.919Z,2.63
2022-08-11T17:38:11.217Z,2.45
2022-08-11T17:41:01.578Z,2.08
2022-08-11T17:43:48.822Z,2.45
2022-08-11T17:46:35.664Z,2.25
2022-08-11T17:49:04.317Z,2.45
2022-08-11T17:51:50.292Z,2.75
2022-08-11T17:54:36.317Z,2.35
2022-08-11T17:57:22.873Z,2.13
2022-08-11T17:59:56.039Z,2.58
2022-08-11T18:02:51.942Z,2.35
2022-08-11T18:05:21.910Z,2.42
2022-08-11T18:10:55.774Z,2.40
2022-08-11T18:13:43.260Z,2.78
2022-08-11T18:16:29.156Z,2.58
2022-08-11T18:19:15.591Z,2.40
2022-08-11T18:22:14.959Z,2.50
2022-08-11T18:25:16.215Z,2.50
2022-08-11T18:28:06.856Z,2.28
2022-08-11T18:31:03.690Z,2.30
2022-08-11T18:34:08.452Z,2.33
2022-08-11T18:36:58.151Z,2.65
2022-08-11T18:39:54.628Z,2.70
2022-08-11T18:42:43.779Z,2.25
2022-08-11T18:45:39.945Z,2.47
2022-08-11T18:48:40.155Z,2.65
2022-08-11T18:51:31.488Z,2.70
2022-08-11T18:54:28.178Z,3.28
2022-08-11T18:57:16.827Z,2.60
2022-08-11T19:00:04.369Z,2.40
2022-08-11T19:02:51.429Z,2.45
2022-08-11T19:06:32.010Z,3.20
2022-08-11T19:08:52.395Z,3.45
2022-08-11T19:11:42.767Z,3.22
2022-08-11T19:14:31.628Z,2.20
2022-08-11T19:17:43.996Z,2.50
2022-08-11T19:20:31.555Z,3.30
2022-08-11T19:26:05.050Z,2.67
2022-08-11T19:28:52.865Z,2.90
2022-08-11T19:31:44.501Z,3.00
2022-08-11T19:34:41.401Z,2.90
2022-08-11T19:37:28.776Z,3.00
2022-08-11T19:40:20.070Z,2.90
2022-08-11T19:43:11.313Z,3.20
2022-08-11T19:46:12.715Z,2.95
2022-08-11T19:48:59.146Z,2.83
2022-08-11T19:51:46.208Z,3.00
2022-08-11T19:54:32.979Z,3.03
2022-08-11T19:57:19.726Z,3.00
2022-08-11T20:00:05.604Z,3.15
2022-08-11T20:02:51.678Z,3.67
2022-08-11T20:05:37.483Z,3.50
2022-08-11T20:08:42.619Z,2.83
2022-08-11T20:11:29.800Z,3.17
2022-08-11T20:14:16.399Z,2.92
2022-08-11T20:17:02.443Z,3.03
2022-08-11T20:19:55.514Z,3.47
2022-08-11T20:22:46.878Z,3.10
2022-08-11T20:25:34.762Z,3.35
2022-08-11T20:28:22.796Z,2.97
2022-08-11T20:31:09.702Z,3.08
2022-08-11T20:33:56.119Z,3.15
2022-08-11T20:36:42.119Z,3.25
2022-08-11T20:39:29.314Z,3.47
2022-08-11T20:42:16.491Z,3.40
2022-08-11T20:45:02.943Z,3.60
2022-08-11T20:47:58.985Z,4.00
2022-08-11T20:50:55.593Z,3.65
2022-08-11T20:53:43.130Z,3.33
2022-08-11T20:56:30.032Z,2.92
2022-08-11T20:59:18.804Z,3.20
2022-08-11T21:02:10.117Z,3.73
2022-08-11T21:05:02.926Z,2.85
2022-08-11T21:07:58.975Z,3.38
2022-08-11T21:10:50.562Z,3.60
2022-08-11T21:13:42.040Z,3.42
2022-08-11T21:16:28.840Z,3.10
2022-08-11T21:20:06.654Z,3.38
2022-08-11T21:22:38.891Z,3.30
2022-08-11T21:25:29.903Z,3.90
2022-08-11T21:28:19.996Z,4.05
2022-08-11T21:31:08.053Z,4.03
2022-08-11T21:33:54.461Z,3.72
2022-08-11T21:36:40.738Z,4.60
2022-08-11T21:42:19.087Z,3.92
2022-08-11T21:45:10.037Z,3.85
2022-08-11T21:48:01.000Z,3.75
2022-08-11T21:50:48.514Z,4.18
2022-08-11T21:53:38.275Z,4.07
2022-08-11T21:56:25.519Z,3.92
2022-08-11T21:59:15.166Z,4.53
2022-08-11T22:02:02.983Z,4.18
2022-08-11T22:04:52.447Z,4.30
2022-08-11T22:07:40.756Z,4.25
2022-08-11T22:10:40.835Z,5.13
2022-08-11T22:13:35.875Z,4.78
2022-08-11T22:16:21.869Z,5.45
2022-08-11T22:19:08.863Z,5.68
2022-08-11T22:22:04.284Z,5.20
2022-08-11T22:24:53.469Z,4.90
2022-08-11T22:27:40.085Z,4.70
2022-08-11T22:30:27.977Z,5.43
2022-08-11T22:33:21.782Z,6.63
2022-08-11T22:36:14.007Z,5.65
2022-08-11T22:39:04.088Z,5.88
2022-08-11T22:41:50.160Z,6.20
2022-08-11T22:44:36.383Z,8.32
2022-08-11T22:47:22.848Z,5.80
2022-08-11T22:50:16.735Z,4.43
2022-08-11T22:53:03.795Z,4.28
2022-08-11T22:55:50.442Z,4.32
2022-08-11T22:58:38.480Z,3.88
2022-08-11T23:01:24.349Z,4.25
2022-08-11T23:04:15.252Z,4.75
2022-08-11T23:07:03.159Z,4.05
2022-08-11T23:09:49.795Z,4.05
2022-08-11T23:12:35.650Z,4.03
2022-08-11T23:15:22.346Z,5.20
2022-08-11T23:18:08.338Z,4.10
2022-08-11T23:20:54.784Z,4.00
2022-08-11T23:23:42.569Z,4.57
2022-08-11T23:26:30.090Z,4.05
2022-08-11T23:29:16.667Z,4.30
2022-08-11T23:32:04.527Z,4.15
2022-08-11T23:35:04.162Z,4.35
2022-08-11T23:38:01.715Z,4.25
2022-08-11T23:40:49.616Z,4.53
2022-08-11T23:43:39.994Z,4.60
2022-08-11T23:46:25.632Z,4.78
2022-08-11T23:49:16.141Z,4.35
2022-08-11T23:52:02.714Z,4.82
2022-08-11T23:54:48.535Z,4.57
2022-08-11T23:57:35.108Z,4.28
